Time;durP1;ratioP1;P1;durP2;ratioP2;P2;SDS_P1;SDS_P2;PMS_P1;PMS_P2;Temp;Humidity;BMP_temperature;BMP_pressure;BME280_temperature;BME280_humidity;BME280_pressure;Samples;Min_cycle;Max_cycle;Signal;HPM_P1;HPM_P2
2022/01/28 00:01:03;;;;;;;12.18;2.50;;;;;;;9.15;74.37;103006.50;7385000;19;20021;-67
2022/01/28 00:03:33;;;;;;;11.10;3.17;;;;;;;9.14;74.95;103004.84;7390173;19;20475;-69
2022/01/28 00:06:00;;;;;;;121.25;33.45;;;;;;;9.12;74.51;103011.94;7387215;19;20312;-66
2022/01/28 00:08:28;;;;;;;50.88;14.27;;;;;;;9.09;74.72;103014.75;7387528;19;20023;-66
2022/01/28 00:10:55;;;;;;;13.85;4.13;;;;;;;9.06;74.68;103017.56;7388082;19;20041;-65
2022/01/28 00:13:26;;;;;;;13.98;3.65;;;;;;;9.05;74.98;103019.34;7386946;19;20143;-67
2022/01/28 00:38:56;;;;;;;11.50;2.95;;;;;;;8.81;75.66;103028.59;7389707;19;20018;-66
2022/01/28 00:41:23;;;;;;;9.52;3.30;;;;;;;8.79;75.42;103031.31;7385065;19;20055;-68
2022/01/28 00:43:49;;;;;;;11.60;3.30;;;;;;;8.80;76.34;103032.16;7386489;19;20351;-66
2022/01/28 00:46:16;;;;;;;7.68;2.30;;;;;;;8.75;76.09;103024.56;7389013;19;20131;-67
2022/01/28 00:48:43;;;;;;;9.35;2.38;;;;;;;8.71;76.06;103027.44;7386893;19;20011;-66
2022/01/28 00:51:10;;;;;;;10.18;2.80;;;;;;;8.68;76.11;103028.47;7387968;19;20021;-67
2022/01/28 00:53:37;;;;;;;9.60;2.33;;;;;;;8.67;76.30;103023.31;7388962;19;20018;-66
2022/01/28 00:56:04;;;;;;;10.40;2.83;;;;;;;8.67;76.81;103024.16;7385995;19;20018;-68
2022/01/28 00:58:31;;;;;;;7.60;2.20;;;;;;;8.67;76.47;103020.69;7387973;19;20019;-67
2022/01/28 01:00:58;;;;;;;8.57;2.35;;;;;;;8.66;76.77;103021.59;7385083;19;20009;-66
2022/01/28 01:03:25;;;;;;;9.52;3.40;;;;;;;8.66;76.51;103011.97;7386522;19;20033;-66
2022/01/28 01:05:52;;;;;;;9.68;2.63;;;;;;;8.65;77.34;103010.25;7388637;19;20042;-68
2022/01/28 01:08:18;;;;;;;11.95;2.88;;;;;;;8.64;77.18;103020.84;7386251;19;20060;-66
2022/01/28 01:10:46;;;;;;;7.25;2.35;;;;;;;8.63;77.00;103033.13;7386425;19;20489;-68
2022/01/28 01:13:12;;;;;;;12.40;2.53;;;;;;;8.64;77.62;103037.41;7392528;19;20035;-66
2022/01/28 01:15:43;;;;;;;18.23;5.22;;;;;;;8.67;77.85;103046.91;7386214;19;20042;-67
2022/01/28 01:18:19;;;;;;;15.85;2.90;;;;;;;8.67;78.11;103044.28;7391191;19;20017;-67
2022/01/28 01:23:23;;;;;;;7.57;2.47;;;;;;;8.59;77.14;103044.69;7396054;19;20015;-65
2022/01/28 01:25:55;;;;;;;7.60;2.65;;;;;;;8.61;77.60;103050.72;7396223;19;20262;-65
2022/01/28 01:28:28;;;;;;;10.63;2.08;;;;;;;8.62;77.92;103041.09;7392820;19;20460;-65
2022/01/28 01:30:57;;;;;;;;;;;;;;;8.56;77.50;103035.25;7393717;19;20038;-67
2022/01/28 01:33:24;;;;;;;8.13;2.20;;;;;;;8.50;77.05;103038.19;7395837;19;19930;-66
2022/01/28 01:35:51;;;;;;;6.65;1.83;;;;;;;8.48;77.28;103039.22;7392469;19;20010;-67
2022/01/28 01:38:23;;;;;;;8.40;1.95;;;;;;;8.45;77.29;103036.75;7393468;19;20015;-68
2022/01/28 01:40:55;;;;;;;9.13;2.13;;;;;;;8.43;77.22;103044.69;7391525;19;20006;-68
2022/01/28 01:53:46;;;;;;;7.38;1.90;;;;;;;8.36;77.07;103050.38;7398533;19;20014;-66
2022/01/28 01:56:14;;;;;;;10.88;2.13;;;;;;;8.35;76.99;103052.16;7391912;19;20724;-65
2022/01/28 01:58:41;;;;;;;9.48;1.92;;;;;;;8.34;77.30;103065.34;7393301;19;20039;-66
2022/01/28 02:01:08;;;;;;;10.88;2.78;;;;;;;8.36;78.46;103064.34;7391531;19;20390;-66
2022/01/28 02:03:35;;;;;;;10.88;2.10;;;;;;;8.34;78.06;103071.44;7395965;19;21173;-66
2022/01/28 02:06:02;;;;;;;11.55;2.40;;;;;;;8.32;77.59;103073.31;7395487;19;20023;-65
2022/01/28 02:08:31;;;;;;;9.68;2.65;;;;;;;8.33;77.55;103069.72;7394298;19;20034;-66
2022/01/28 02:10:59;;;;;;;7.53;1.73;;;;;;;8.33;77.61;103079.41;7392055;19;20043;-67
2022/01/28 02:13:28;;;;;;;7.18;1.30;;;;;;;8.32;77.34;103085.56;7392219;19;20038;-65
2022/01/28 02:15:56;;;;;;;10.55;2.28;;;;;;;8.31;77.37;103082.09;7394475;19;20035;-65
2022/01/28 02:18:24;;;;;;;7.82;2.05;;;;;;;8.29;77.34;103075.19;7394237;19;20019;-66
2022/01/28 02:20:54;;;;;;;7.25;1.60;;;;;;;8.26;77.02;103081.47;7393187;19;20425;-68
2022/01/28 02:23:23;;;;;;;12.23;4.65;;;;;;;8.24;77.42;103085.94;7391272;19;20015;-66
2022/01/28 02:25:50;;;;;;;7.20;1.92;;;;;;;8.22;77.72;103079.94;7394823;19;20027;-66
2022/01/28 02:28:21;;;;;;;6.60;1.92;;;;;;;8.20;77.30;103081.78;7389621;19;20047;-67
2022/01/28 02:30:48;;;;;;;12.60;2.22;;;;;;;8.18;77.35;103073.13;7391615;19;20007;-68
2022/01/28 02:33:19;;;;;;;10.52;1.70;;;;;;;8.18;77.16;103071.38;7392808;19;20033;-66
2022/01/28 02:35:48;;;;;;;7.80;1.65;;;;;;;8.16;77.42;103059.28;7391611;19;20038;-66
2022/01/28 02:38:20;;;;;;;8.68;1.75;;;;;;;8.11;77.22;103064.78;7393885;19;20011;-66
2022/01/28 02:40:56;;;;;;;7.82;1.95;;;;;;;8.07;77.41;103073.75;7389469;19;20007;-67
2022/01/28 02:43:35;;;;;;;6.15;2.08;;;;;;;8.05;77.74;103080.81;7392524;19;20048;-70
2022/01/28 02:46:08;;;;;;;6.45;1.95;;;;;;;8.05;78.40;103082.59;7390863;19;20006;-67
2022/01/28 02:48:37;;;;;;;6.88;1.27;;;;;;;8.05;78.01;103072.97;7390594;19;20555;-66
2022/01/28 02:51:12;;;;;;;8.85;1.80;;;;;;;8.07;77.84;103078.97;7393578;19;20022;-66
2022/01/28 02:56:16;;;;;;;4.78;1.10;;;;;;;8.02;77.95;103078.38;7390854;19;20029;-67
2022/01/28 02:58:44;;;;;;;8.50;1.60;;;;;;;7.98;77.43;103083.81;7394163;19;20118;-66
2022/01/28 03:01:13;;;;;;;7.18;1.70;;;;;;;7.97;78.09;103088.25;7390699;19;20025;-67
2022/01/28 03:03:42;;;;;;;5.65;1.40;;;;;;;7.94;77.95;103077.91;7391307;19;20010;-67
2022/01/28 03:06:09;;;;;;;7.32;2.10;;;;;;;7.93;78.24;103093.72;7392741;19;20014;-66
2022/01/28 03:08:37;;;;;;;7.25;2.10;;;;;;;7.91;77.97;103109.53;7391590;19;20002;-65
2022/01/28 03:11:30;;;;;;;7.63;1.73;;;;;;;7.89;78.18;103107.91;7389960;19;20014;-66
2022/01/28 03:16:32;;;;;;;4.10;1.33;;;;;;;7.83;78.19;103101.19;7389926;19;20480;-66
2022/01/28 03:19:13;;;;;;;6.18;1.70;;;;;;;7.83;78.37;103103.81;7393468;19;20014;-67
2022/01/28 03:21:53;;;;;;;7.03;1.90;;;;;;;7.79;78.34;103097.06;7388951;19;20145;-66
2022/01/28 03:24:20;;;;;;;7.15;1.75;;;;;;;7.77;78.34;103084.97;7390730;19;20034;-67
2022/01/28 03:26:51;;;;;;;7.75;1.42;;;;;;;7.71;78.26;103091.38;7392838;19;20015;-66
2022/01/28 03:29:18;;;;;;;8.55;1.30;;;;;;;7.70;78.32;103093.13;7387976;19;20044;-67
2022/01/28 03:31:44;;;;;;;9.05;1.80;;;;;;;7.69;78.25;103095.81;7391325;19;20010;-65
2022/01/28 03:34:11;;;;;;;7.38;1.75;;;;;;;7.66;78.44;103096.84;7394241;19;20007;-68
2022/01/28 03:36:39;;;;;;;8.65;1.85;;;;;;;7.63;78.34;103098.75;7388110;19;20635;-66
2022/01/28 03:39:08;;;;;;;5.50;1.60;;;;;;;7.59;78.64;103099.84;7389383;19;20033;-67
2022/01/28 03:41:35;;;;;;;5.07;1.40;;;;;;;7.56;78.61;103095.59;7389110;19;20389;-67
2022/01/28 03:44:01;;;;;;;8.68;1.25;;;;;;;7.51;78.87;103088.91;7391936;19;20007;-67
2022/01/28 03:46:30;;;;;;;8.93;1.90;;;;;;;7.50;78.94;103089.81;7390119;19;20119;-67
2022/01/28 03:48:57;;;;;;;13.60;3.58;;;;;;;7.52;79.32;103091.41;7390678;19;20527;-66
2022/01/28 03:51:25;;;;;;;12.07;3.47;;;;;;;7.51;79.18;103091.53;7391608;19;20021;-67
2022/01/28 03:53:52;;;;;;;10.20;2.22;;;;;;;7.51;79.22;103095.00;7391258;19;20048;-66
2022/01/28 03:56:19;;;;;;;6.57;2.00;;;;;;;7.49;79.13;103090.75;7384886;19;20010;-68
2022/01/28 03:58:45;;;;;;;5.47;1.42;;;;;;;7.50;79.40;103095.06;7378319;19;20028;-66
2022/01/28 04:01:17;;;;;;;5.57;1.42;;;;;;;7.48;79.34;103089.88;7387656;19;20010;-66
2022/01/28 04:04:04;;;;;;;6.32;1.25;;;;;;;7.46;78.96;103085.66;7390468;19;20582;-67
2022/01/28 04:11:56;;;;;;;9.57;1.13;;;;;;;7.43;79.21;103088.41;7387890;19;20038;-66
2022/01/28 04:19:35;;;;;;;8.38;1.25;;;;;;;7.36;79.70;103089.66;7387706;19;20025;-67
2022/01/28 04:22:02;;;;;;;8.35;1.77;;;;;;;7.37;80.13;103086.09;7384948;19;20014;-67
2022/01/28 04:24:29;;;;;;;4.57;2.47;;;;;;;7.40;79.97;103091.19;7390428;19;20030;-66
2022/01/28 04:26:58;;;;;;;6.43;1.67;;;;;;;7.43;79.61;103091.03;7391270;19;20562;-68
2022/01/28 04:29:25;;;;;;;6.25;1.70;;;;;;;7.42;79.58;103084.94;7389945;19;20011;-65
2022/01/28 04:31:52;;;;;;;4.95;1.30;;;;;;;7.41;79.51;103080.66;7387688;19;20015;-67
2022/01/28 04:34:21;;;;;;;3.42;1.40;;;;;;;7.37;79.75;103081.72;7386657;19;20026;-65
2022/01/28 04:39:29;;;;;;;4.50;1.40;;;;;;;7.33;79.86;103069.69;7389126;19;20490;-66
2022/01/28 04:44:45;;;;;;;8.52;1.88;;;;;;;7.29;79.88;103071.63;7389111;19;20010;-65
2022/01/28 04:47:20;;;;;;;6.05;1.38;;;;;;;7.28;79.92;103083.03;7390565;19;20015;-66
2022/01/28 04:57:52;;;;;;;6.18;1.33;;;;;;;7.28;80.19;103090.03;7396045;19;20144;-69
2022/01/28 05:11:10;;;;;;;8.20;1.42;;;;;;;7.25;80.06;103113.75;7396577;19;20010;-65
2022/01/28 05:29:00;;;;;;;8.48;1.73;;;;;;;7.34;80.96;103105.44;7394543;19;20014;-67
2022/01/28 05:31:27;;;;;;;6.63;1.27;;;;;;;7.37;80.56;103102.66;7392536;19;20419;-66
2022/01/28 05:34:00;;;;;;;7.32;1.40;;;;;;;7.38;79.89;103109.59;7391553;19;20365;-67
2022/01/28 05:36:29;;;;;;;16.70;4.93;;;;;;;7.38;80.01;103103.50;7397771;19;20034;-67
2022/01/28 05:38:56;;;;;;;11.00;3.42;;;;;;;7.42;82.69;103103.28;7391956;19;20034;-67
2022/01/28 05:41:25;;;;;;;53.40;11.68;;;;;;;7.41;82.88;103099.00;7394997;19;20014;-67
2022/01/28 05:43:52;;;;;;;12.68;3.08;;;;;;;7.41;83.74;103104.22;7392695;19;20026;-66
2022/01/28 05:46:19;;;;;;;13.40;4.65;;;;;;;7.39;82.10;103097.34;7396140;19;20010;-67
2022/01/28 05:48:46;;;;;;;7.78;2.30;;;;;;;7.36;81.59;103100.13;7395295;19;20007;-67
2022/01/28 05:51:13;;;;;;;8.20;1.52;;;;;;;7.29;81.28;103105.66;7396445;19;20018;-67
2022/01/28 05:53:40;;;;;;;43.22;10.27;;;;;;;7.26;81.96;103095.31;7392422;19;20010;-67
2022/01/28 05:56:10;;;;;;;8.15;2.78;;;;;;;7.26;82.93;103097.13;7395306;19;20546;-66
2022/01/28 05:58:37;;;;;;;6.72;2.08;;;;;;;7.20;81.94;103095.66;7391883;19;20014;-67
2022/01/28 06:01:04;;;;;;;8.80;3.28;;;;;;;7.20;81.03;103105.28;7391152;19;20016;-67
2022/01/28 06:03:31;;;;;;;6.78;2.08;;;;;;;7.18;80.22;103107.09;7393991;19;20050;-67
2022/01/28 06:05:58;;;;;;;12.15;4.72;;;;;;;7.17;80.19;103108.03;7394606;19;20387;-68
2022/01/28 06:08:25;;;;;;;7.55;1.88;;;;;;;7.14;80.95;103110.81;7391893;19;20011;-68
2022/01/28 06:10:52;;;;;;;8.80;2.33;;;;;;;7.09;80.48;103112.78;7393825;19;20465;-67
2022/01/28 06:13:19;;;;;;;9.85;3.53;;;;;;;7.05;80.44;103121.72;7390812;19;20081;-66
2022/01/28 06:15:46;;;;;;;9.38;2.97;;;;;;;7.04;80.86;103127.88;7391761;19;20045;-67
2022/01/28 06:18:13;;;;;;;17.48;7.30;;;;;;;7.07;82.58;103125.94;7394107;19;20046;-67
2022/01/28 06:20:40;;;;;;;11.48;4.07;;;;;;;7.13;84.22;103127.41;7392089;19;20442;-66
2022/01/28 06:23:12;;;;;;;8.48;3.58;;;;;;;7.12;83.59;103131.81;7395800;19;20022;-65
2022/01/28 06:25:39;;;;;;;11.02;4.40;;;;;;;7.09;83.31;103138.97;7394792;19;20014;-66
2022/01/28 06:28:06;;;;;;;5.07;2.45;;;;;;;7.06;81.42;103141.75;7395599;19;20456;-66
2022/01/28 06:30:33;;;;;;;6.13;2.10;;;;;;;7.05;80.15;103156.59;7396815;19;20369;-67
2022/01/28 06:33:00;;;;;;;7.72;2.03;;;;;;;7.02;79.82;103153.25;7391998;19;20439;-66
2022/01/28 06:35:27;;;;;;;5.32;1.98;;;;;;;7.00;80.17;103161.19;7394197;19;20024;-66
2022/01/28 06:37:53;;;;;;;9.15;2.47;;;;;;;6.98;79.70;103167.41;7387961;19;20015;-66
2022/01/28 06:40:20;;;;;;;9.68;2.60;;;;;;;6.99;80.16;103172.56;7396250;19;20460;-68
2022/01/28 06:42:47;;;;;;;15.73;4.10;;;;;;;6.98;80.20;103176.09;7389913;19;20448;-71
2022/01/28 06:45:14;;;;;;;7.00;2.15;;;;;;;6.99;80.90;103175.19;7391348;19;20014;-66
2022/01/28 06:47:41;;;;;;;13.75;2.47;;;;;;;7.01;80.46;103181.19;7391480;19;20015;-66
2022/01/28 06:50:09;;;;;;;9.55;2.28;;;;;;;7.03;79.95;103186.34;7391187;19;20022;-66
2022/01/28 06:52:37;;;;;;;9.10;2.30;;;;;;;7.02;79.88;103187.28;7393069;19;20026;-67
2022/01/28 06:55:05;;;;;;;7.07;2.15;;;;;;;7.03;79.98;103171.50;7391429;19;20026;-66
2022/01/28 06:57:33;;;;;;;7.00;2.22;;;;;;;7.02;79.69;103174.19;7395394;19;20018;-67
2022/01/28 07:00:00;;;;;;;10.32;3.45;;;;;;;6.99;79.49;103162.09;7392996;19;20018;-67
2022/01/28 07:02:27;;;;;;;4.90;1.58;;;;;;;6.95;79.90;103163.19;7388265;19;20010;-66
2022/01/28 07:04:54;;;;;;;6.65;2.10;;;;;;;6.94;80.27;103164.09;7390578;19;20002;-66
2022/01/28 07:07:23;;;;;;;7.45;2.80;;;;;;;6.95;80.38;103175.41;7393446;19;20006;-67
2022/01/28 07:09:51;;;;;;;14.10;5.80;;;;;;;6.98;80.46;103162.16;7390943;19;20011;-67
2022/01/28 07:12:19;;;;;;;11.55;3.30;;;;;;;7.00;80.71;103155.97;7392762;19;20471;-66
2022/01/28 07:14:48;;;;;;;9.77;2.20;;;;;;;7.02;80.97;103175.03;7392799;19;20046;-67
2022/01/28 07:17:16;;;;;;;5.55;2.75;;;;;;;7.05;80.89;103174.91;7388828;19;20098;-66
2022/01/28 07:19:42;;;;;;;10.70;2.78;;;;;;;7.06;81.15;103186.22;7390251;19;20031;-66
2022/01/28 07:22:10;;;;;;;6.88;3.10;;;;;;;7.03;81.30;103171.50;7391492;19;20003;-66
2022/01/28 07:24:36;;;;;;;10.68;3.97;;;;;;;7.02;81.45;103177.66;7393813;19;20492;-66
2022/01/28 07:27:04;;;;;;;11.52;4.43;;;;;;;7.04;81.71;103177.59;7389678;19;20022;-66
2022/01/28 07:29:35;;;;;;;7.95;3.25;;;;;;;7.02;81.56;103182.03;7392005;19;20036;-66
2022/01/28 07:32:02;;;;;;;8.70;3.00;;;;;;;7.13;86.27;103179.78;7389305;19;20014;-68
2022/01/28 07:34:29;;;;;;;9.73;3.35;;;;;;;7.24;89.42;103190.59;7389446;19;20010;-66
2022/01/28 07:36:56;;;;;;;7.53;2.97;;;;;;;7.20;87.40;103200.38;7389931;19;20014;-67
2022/01/28 07:39:23;;;;;;;14.80;3.33;;;;;;;7.16;84.32;103206.66;7392815;19;20011;-71
2022/01/28 07:41:50;;;;;;;6.70;2.65;;;;;;;7.19;82.42;103197.81;7389414;19;20011;-67
2022/01/28 07:44:17;;;;;;;12.35;3.55;;;;;;;7.19;81.23;103192.56;7391567;19;20014;-67
2022/01/28 07:46:44;;;;;;;6.30;2.28;;;;;;;7.17;80.87;103203.13;7394342;19;20027;-66
2022/01/28 07:49:15;;;;;;;11.23;2.42;;;;;;;7.17;80.60;103192.66;7388221;19;20026;-66
2022/01/28 07:51:42;;;;;;;9.75;2.95;;;;;;;7.19;81.72;103198.66;7389770;19;20018;-67
2022/01/28 07:54:09;;;;;;;6.70;2.13;;;;;;;7.21;81.69;103202.03;7390323;19;20362;-66
2022/01/28 07:56:36;;;;;;;7.18;2.53;;;;;;;7.20;81.68;103194.28;7389434;19;20178;-66
2022/01/28 07:59:03;;;;;;;6.85;2.50;;;;;;;7.21;80.79;103202.03;7392470;19;20344;-65
2022/01/28 08:01:30;;;;;;;13.13;2.63;;;;;;;7.21;80.77;103204.66;7391937;19;20006;-68
2022/01/28 08:03:58;;;;;;;10.18;5.53;;;;;;;7.18;81.15;103203.97;7389372;19;20006;-67
2022/01/28 08:06:26;;;;;;;6.53;2.30;;;;;;;7.16;81.39;103208.44;7387072;19;20073;-67
2022/01/28 08:08:53;;;;;;;7.82;3.47;;;;;;;7.18;81.54;103209.19;7388894;19;20093;-65
2022/01/28 08:11:20;;;;;;;9.52;3.03;;;;;;;7.22;82.67;103195.88;7392065;19;20018;-67
2022/01/28 08:13:47;;;;;;;12.15;3.92;;;;;;;7.18;81.55;103196.09;7393321;19;20070;-67
2022/01/28 08:16:14;;;;;;;14.45;5.68;;;;;;;7.23;82.08;103196.75;7391136;19;20467;-68
2022/01/28 08:18:42;;;;;;;11.10;4.65;;;;;;;7.28;83.17;103195.59;7391761;19;20025;-65
2022/01/28 08:21:09;;;;;;;15.13;6.18;;;;;;;7.32;83.79;103197.16;7387816;19;20010;-67
2022/01/28 08:23:36;;;;;;;10.95;2.92;;;;;;;7.43;85.60;103201.03;7388224;19;20022;-67
2022/01/28 08:26:04;;;;;;;9.48;2.83;;;;;;;7.71;91.41;103206.66;7389820;19;20070;-66
2022/01/28 08:28:31;;;;;;;9.15;3.95;;;;;;;7.87;89.14;103198.88;7389407;19;20014;-66
2022/01/28 08:30:59;;;;;;;5.93;2.03;;;;;;;7.86;86.16;103198.03;7392407;19;20018;-66
2022/01/28 08:33:26;;;;;;;205.80;22.25;;;;;;;7.93;87.17;103199.41;7389291;19;20018;-66
2022/01/28 08:35:55;;;;;;;58.53;14.85;;;;;;;7.95;87.49;103212.44;7385966;19;20022;-67
2022/01/28 08:38:26;;;;;;;16.25;4.57;;;;;;;7.92;85.57;103213.44;7384412;19;20109;-67
2022/01/28 08:40:56;;;;;;;16.38;4.97;;;;;;;7.86;84.31;103202.41;7389639;19;20469;-65
2022/01/28 08:43:23;;;;;;;27.90;9.95;;;;;;;7.85;83.91;103195.47;7386220;19;20011;-66
2022/01/28 08:45:51;;;;;;;26.73;11.23;;;;;;;7.79;82.84;103201.00;7388228;19;20014;-67
2022/01/28 08:48:18;;;;;;;15.85;5.38;;;;;;;7.78;83.99;103189.69;7388578;19;20447;-65
2022/01/28 08:50:46;;;;;;;12.13;2.95;;;;;;;7.79;85.75;103182.66;7386722;19;20369;-65
2022/01/28 08:53:13;;;;;;;19.65;7.50;;;;;;;7.67;83.56;103176.25;7389592;19;20007;-66
2022/01/28 08:55:40;;;;;;;12.23;5.25;;;;;;;7.65;83.00;103184.22;7386476;19;20014;-67
2022/01/28 08:58:09;;;;;;;7.45;3.63;;;;;;;7.64;82.67;103185.13;7386153;19;20010;-67
2022/01/28 09:00:36;;;;;;;11.18;4.75;;;;;;;7.67;82.94;103186.72;7386604;19;20007;-67
2022/01/28 09:03:04;;;;;;;14.48;6.45;;;;;;;7.69;82.56;103187.53;7383458;19;20010;-67
2022/01/28 09:05:33;;;;;;;17.98;7.68;;;;;;;7.70;82.57;103205.78;7390556;19;20010;-67
2022/01/28 09:08:09;;;;;;;9.90;2.67;;;;;;;7.69;83.07;103193.63;7386297;19;20026;-67
2022/01/28 09:10:42;;;;;;;5.85;2.47;;;;;;;7.70;81.41;103210.19;7386880;19;20430;-66
2022/01/28 09:13:21;;;;;;;9.80;3.85;;;;;;;7.71;81.49;103210.13;7385555;19;20014;-67
2022/01/28 09:15:54;;;;;;;19.52;7.60;;;;;;;7.73;81.78;103200.38;7386066;19;20031;-66
2022/01/28 09:18:25;;;;;;;6.10;2.35;;;;;;;7.75;82.23;103208.19;7386010;19;20424;-68
2022/01/28 09:20:52;;;;;;;17.20;3.95;;;;;;;7.70;81.21;103208.41;7385242;19;20482;-66
2022/01/28 09:23:19;;;;;;;12.85;3.20;;;;;;;7.76;80.80;103219.53;7383337;19;20017;-66
2022/01/28 09:25:46;;;;;;;8.27;1.85;;;;;;;7.76;80.54;103230.00;7389789;19;20046;-65
2022/01/28 09:28:13;;;;;;;8.65;3.22;;;;;;;7.76;80.52;103219.53;7385527;19;20078;-66
2022/01/28 09:30:41;;;;;;;11.88;2.97;;;;;;;7.73;80.61;103225.75;7388103;19;20016;-65
2022/01/28 09:33:08;;;;;;;9.65;2.92;;;;;;;7.79;80.45;103214.97;7388300;19;20021;-67
2022/01/28 09:35:36;;;;;;;14.90;6.35;;;;;;;7.86;80.96;103210.28;7387252;19;20007;-69
2022/01/28 09:38:04;;;;;;;7.60;2.92;;;;;;;7.94;81.23;103203.72;7388645;19;20017;-66
2022/01/28 09:40:32;;;;;;;18.75;5.32;;;;;;;8.01;80.65;103204.28;7391995;19;20006;-67
2022/01/28 09:43:01;;;;;;;13.85;3.70;;;;;;;8.06;80.36;103207.50;7391163;19;20010;-71
2022/01/28 09:45:27;;;;;;;9.90;2.83;;;;;;;8.13;80.11;103212.34;7395016;19;20014;-65
2022/01/28 09:47:56;;;;;;;7.53;2.65;;;;;;;8.17;79.63;103213.06;7393761;19;20014;-67
2022/01/28 09:50:28;;;;;;;10.82;3.22;;;;;;;8.21;79.13;103224.25;7397074;19;20213;-66
2022/01/28 09:52:56;;;;;;;7.35;2.55;;;;;;;8.21;78.93;103224.25;7392304;19;20959;-67
2022/01/28 09:55:25;;;;;;;8.52;2.80;;;;;;;8.26;78.83;103223.06;7396186;19;20015;-66
2022/01/28 09:57:55;;;;;;;10.32;2.85;;;;;;;8.34;79.12;103214.84;7390214;19;20017;-67
2022/01/28 10:00:25;;;;;;;6.93;2.70;;;;;;;8.36;78.87;103219.09;7396819;19;20011;-68
2022/01/28 10:02:53;;;;;;;9.82;2.70;;;;;;;8.39;78.79;103208.44;7390397;19;20078;-67
2022/01/28 10:05:25;;;;;;;8.77;2.80;;;;;;;8.45;79.93;103212.50;7397682;19;20027;-67
2022/01/28 10:08:03;;;;;;;7.57;2.28;;;;;;;8.46;79.15;103211.59;7394452;19;20370;-67
2022/01/28 10:10:42;;;;;;;8.02;2.58;;;;;;;8.51;78.45;103204.31;7395992;19;20006;-67
2022/01/28 10:13:15;;;;;;;9.07;1.88;;;;;;;8.57;78.43;103199.63;7392861;19;20007;-66
2022/01/28 10:15:56;;;;;;;10.85;2.70;;;;;;;8.63;78.26;103195.81;7391817;19;20070;-67
2022/01/28 10:18:41;;;;;;;13.88;5.20;;;;;;;8.65;79.06;103193.94;7394919;19;20011;-67
2022/01/28 10:21:19;;;;;;;13.10;4.50;;;;;;;8.65;79.34;103198.34;7393125;19;20006;-67
2022/01/28 10:23:57;;;;;;;14.43;5.88;;;;;;;8.70;79.13;103181.41;7389011;19;20102;-66
2022/01/28 10:26:33;;;;;;;12.27;6.90;;;;;;;8.77;80.30;103189.81;7393081;19;20129;-66
2022/01/28 10:29:04;;;;;;;11.45;6.20;;;;;;;8.86;82.56;103181.44;7396939;19;20029;-66
2022/01/28 10:31:37;;;;;;;8.20;5.05;;;;;;;8.88;81.87;103182.22;7391413;19;20025;-69
2022/01/28 10:34:16;;;;;;;14.75;5.38;;;;;;;8.88;80.54;103187.47;7392045;19;20029;-68
2022/01/28 10:36:46;;;;;;;7.55;2.60;;;;;;;8.88;79.85;103185.69;7392712;19;20014;-66
2022/01/28 10:39:17;;;;;;;6.20;2.60;;;;;;;8.88;78.81;103185.69;7392121;19;20590;-67
2022/01/28 10:41:53;;;;;;;10.63;3.03;;;;;;;8.89;78.05;103186.50;7395610;19;20525;-67
2022/01/28 10:44:20;;;;;;;13.15;2.83;;;;;;;8.89;77.95;103192.63;7393299;19;20010;-66
2022/01/28 10:46:52;;;;;;;7.47;3.00;;;;;;;8.93;77.79;103183.66;7391532;19;20456;-68
2022/01/28 10:49:25;;;;;;;12.70;4.97;;;;;;;9.01;77.92;103173.59;7395386;19;20382;-67
2022/01/28 10:51:52;;;;;;;7.82;3.70;;;;;;;9.06;78.86;103154.94;7389551;19;20031;-68
2022/01/28 10:54:22;;;;;;;8.70;2.70;;;;;;;9.10;78.84;103166.97;7392087;19;20010;-67
2022/01/28 10:56:56;;;;;;;8.32;3.58;;;;;;;9.15;78.70;103161.47;7390583;19;20086;-66
2022/01/28 10:59:26;;;;;;;13.02;3.70;;;;;;;9.15;78.19;103172.81;7392902;19;20010;-68
2022/01/28 11:01:54;;;;;;;14.18;5.07;;;;;;;9.20;78.34;103168.16;7389927;19;20014;-66
2022/01/28 11:04:22;;;;;;;9.93;3.38;;;;;;;9.26;78.85;103166.97;7394403;19;20018;-67
2022/01/28 11:06:52;;;;;;;13.32;4.88;;;;;;;9.26;79.29;103165.19;7393739;19;20018;-66
2022/01/28 11:09:21;;;;;;;12.07;3.95;;;;;;;9.30;78.91;103160.59;7392977;19;20664;-67
2022/01/28 11:11:49;;;;;;;9.23;3.67;;;;;;;9.35;79.41;103148.03;7392174;19;20476;-68
2022/01/28 11:14:18;;;;;;;13.57;6.65;;;;;;;9.39;78.91;103152.22;7389552;19;20049;-67
2022/01/28 11:16:46;;;;;;;8.07;3.03;;;;;;;9.44;78.32;103163.31;7390435;19;20351;-67
2022/01/28 11:19:17;;;;;;;13.05;5.13;;;;;;;9.49;79.43;103157.78;7390265;19;20010;-67
2022/01/28 11:22:07;;;;;;;10.00;3.50;;;;;;;9.48;78.93;103150.84;7395006;19;20574;-68
2022/01/28 11:24:45;;;;;;;14.95;6.63;;;;;;;9.44;78.24;103137.88;7391973;19;20035;-67
2022/01/28 11:27:27;;;;;;;12.82;3.47;;;;;;;9.50;78.03;103128.78;7394402;19;20021;-68
2022/01/28 11:30:13;;;;;;;14.07;3.92;;;;;;;9.50;78.86;103118.25;7392568;19;20281;-67
2022/01/28 11:32:53;;;;;;;6.53;1.95;;;;;;;9.51;77.46;103104.19;7393983;19;20006;-66
2022/01/28 11:35:21;;;;;;;11.93;5.05;;;;;;;9.57;78.48;103103.00;7389106;19;20010;-66
2022/01/28 11:37:53;;;;;;;9.93;2.92;;;;;;;9.63;78.56;103102.63;7388076;19;20504;-66
2022/01/28 11:40:24;;;;;;;7.13;2.55;;;;;;;9.63;77.33;103106.13;7393032;19;20859;-67
2022/01/28 11:43:16;;;;;;;11.10;3.25;;;;;;;9.69;77.68;103102.28;7388392;19;20014;-65
2022/01/28 11:45:43;;;;;;;8.00;4.63;;;;;;;9.77;78.10;103107.91;7390952;19;20015;-66
2022/01/28 11:48:10;;;;;;;11.30;5.80;;;;;;;9.84;78.31;103102.22;7390128;19;20013;-68
2022/01/28 11:50:37;;;;;;;10.50;3.47;;;;;;;9.93;78.06;103092.06;7388500;19;20078;-65
2022/01/28 11:53:21;;;;;;;10.80;2.97;;;;;;;10.01;77.41;103090.66;7387830;19;20163;-67
2022/01/28 11:56:01;;;;;;;9.77;4.32;;;;;;;10.06;77.34;103087.75;7389511;19;20010;-67
2022/01/28 11:58:58;;;;;;;7.47;2.70;;;;;;;10.15;76.42;103084.59;7390826;19;20329;-65
2022/01/28 12:01:35;;;;;;;11.52;3.60;;;;;;;10.20;77.27;103070.25;7391002;19;20038;-67
2022/01/28 12:04:21;;;;;;;7.18;3.28;;;;;;;10.27;76.72;103061.00;7391323;19;20499;-67
2022/01/28 12:06:53;;;;;;;8.93;3.55;;;;;;;10.32;75.83;103068.63;7392643;19;20017;-65
2022/01/28 12:09:23;;;;;;;13.15;7.15;;;;;;;10.37;76.40;103060.44;7389270;19;20011;-66
2022/01/28 12:11:51;;;;;;;12.10;3.53;;;;;;;10.42;77.33;103046.06;7388125;19;20018;-65
2022/01/28 12:14:42;;;;;;;8.30;3.17;;;;;;;10.47;76.61;103043.13;7391086;19;20035;-66
2022/01/28 12:17:30;;;;;;;11.18;3.75;;;;;;;10.50;76.43;103043.78;7389673;19;20027;-67
2022/01/28 12:20:09;;;;;;;8.35;2.88;;;;;;;10.56;76.09;103046.03;7387488;19;20041;-66
2022/01/28 12:23:00;;;;;;;10.43;2.60;;;;;;;10.61;75.54;103046.59;7390444;19;20471;-67
2022/01/28 12:25:47;;;;;;;7.32;1.90;;;;;;;10.62;74.85;103037.72;7387960;19;20334;-66
2022/01/28 12:28:26;;;;;;;14.82;1.92;;;;;;;10.61;73.61;103040.50;7386201;19;20440;-66
2022/01/28 12:31:03;;;;;;;8.15;2.92;;;;;;;10.66;74.13;103041.03;7390556;19;20014;-66
2022/01/28 12:33:37;;;;;;;7.63;2.22;;;;;;;10.72;74.24;103035.34;7387251;19;20017;-66
2022/01/28 12:36:08;;;;;;;8.20;2.10;;;;;;;10.78;73.96;103050.75;7389033;19;20074;-66
2022/01/28 12:38:45;;;;;;;9.73;1.60;;;;;;;10.84;73.51;103049.53;7388690;19;20011;-67
2022/01/28 12:41:16;;;;;;;10.02;2.03;;;;;;;10.86;73.80;103050.28;7389835;19;20022;-66
2022/01/28 12:43:43;;;;;;;9.30;2.42;;;;;;;10.88;73.34;103024.66;7387635;19;20014;-65
2022/01/28 12:46:14;;;;;;;8.05;1.65;;;;;;;10.92;74.35;103011.19;7390172;19;20061;-66
2022/01/28 12:48:49;;;;;;;8.93;1.48;;;;;;;10.97;73.19;103011.72;7388755;19;20078;-65
2022/01/28 12:51:17;;;;;;;7.70;1.00;;;;;;;11.01;72.55;103007.97;7391910;19;20015;-68
2022/01/28 12:53:47;;;;;;;4.57;1.20;;;;;;;11.02;72.39;102999.09;7390572;19;20022;-66
2022/01/28 12:56:28;;;;;;;;;;;;;;;11.03;71.97;102984.16;7391522;19;20105;-66
2022/01/28 12:58:55;;;;;;;11.98;1.30;;;;;;;11.04;72.97;102967.41;7393441;19;20308;-66
2022/01/28 13:01:22;;;;;;;3.67;1.00;;;;;;;11.10;73.02;102965.22;7389233;19;20018;-67
2022/01/28 13:04:03;;;;;;;9.05;0.90;;;;;;;11.15;71.75;102965.75;7385210;19;20014;-66
2022/01/28 13:09:15;;;;;;;5.38;1.20;;;;;;;11.23;71.90;102959.94;7385590;19;20043;-68
2022/01/28 13:11:47;;;;;;;5.28;0.90;;;;;;;11.23;71.55;102940.66;7387978;19;20098;-66
2022/01/28 13:14:20;;;;;;;9.43;1.50;;;;;;;11.23;71.25;102932.75;7389936;19;20043;-65
2022/01/28 13:16:49;;;;;;;6.43;1.08;;;;;;;11.24;71.45;102937.91;7392601;19;20011;-67